Time;durP1;ratioP1;P1;durP2;ratioP2;P2;SDS_P1;SDS_P2;PMS_P1;PMS_P2;Temp;Humidity;BMP_temperature;BMP_pressure;BME280_temperature;BME280_humidity;BME280_pressure;Samples;Min_cycle;Max_cycle;Signal;HPM_P1;HPM_P2
2024/02/04 00:07:09;;;;;;;23.23;10.17;;;10.80;99.90;;;;;;20639621;28;20062;-41
2024/02/04 00:17:09;;;;;;;29.90;11.30;;;10.90;99.90;;;;;;20658702;28;20454;-41
2024/02/04 00:27:10;;;;;;;31.00;11.65;;;10.90;99.90;;;;;;20663961;28;20046;-41
2024/02/04 00:37:10;;;;;;;27.00;10.82;;;10.80;99.90;;;;;;20662025;28;20044;-41
2024/02/04 00:47:11;;;;;;;25.05;9.95;;;10.70;99.90;;;;;;20661346;28;20137;-41
2024/02/04 00:57:11;;;;;;;25.10;10.63;;;10.60;99.90;;;;;;20653854;28;20390;-41
2024/02/04 01:07:12;;;;;;;24.75;9.10;;;10.60;99.90;;;;;;20673089;28;20084;-41
2024/02/04 01:17:13;;;;;;;29.70;9.90;;;10.40;99.90;;;;;;20666030;28;20701;-41
2024/02/04 01:27:13;;;;;;;23.65;9.25;;;10.40;99.90;;;;;;20666218;28;20066;-41
2024/02/04 01:37:14;;;;;;;19.23;7.47;;;10.40;99.90;;;;;;20664773;28;20044;-41
2024/02/04 01:47:14;;;;;;;19.45;6.80;;;10.40;99.90;;;;;;20662175;28;20518;-41
2024/02/04 01:57:16;;;;;;;19.65;8.35;;;10.30;99.90;;;;;;20656488;28;20050;-40
2024/02/04 02:07:20;;;;;;;25.17;9.60;;;10.30;99.90;;;;;;20670020;28;20057;-41
2024/02/04 02:17:27;;;;;;;25.02;11.70;;;10.30;99.90;;;;;;20662413;28;20069;-41
2024/02/04 02:27:28;;;;;;;29.65;13.25;;;10.30;99.90;;;;;;20673427;28;20068;-41
2024/02/04 02:37:56;;;;;;;29.67;11.23;;;10.30;99.90;;;;;;20656862;28;20030;-41
2024/02/04 02:47:57;;;;;;;25.08;11.00;;;10.20;99.90;;;;;;20653078;28;20986;-41
2024/02/04 02:57:58;;;;;;;25.20;8.88;;;10.20;99.90;;;;;;20653398;28;20541;-41
2024/02/04 03:07:59;;;;;;;12.90;4.30;;;10.10;99.90;;;;;;20654813;28;20081;-40
2024/02/04 03:17:59;;;;;;;13.13;3.13;;;10.10;99.90;;;;;;20649233;28;20030;-41
2024/02/04 03:28:00;;;;;;;15.63;3.92;;;9.90;99.90;;;;;;20651797;28;20048;-41
2024/02/04 03:38:00;;;;;;;15.13;4.03;;;9.80;99.90;;;;;;21147725;23;20500;-40
2024/02/04 03:48:01;;;;;;;13.20;5.38;;;9.60;99.90;;;;;;20646062;28;20142;-40
2024/02/04 03:58:02;;;;;;;18.27;5.55;;;9.60;99.90;;;;;;20627881;28;20088;-40
2024/02/04 04:08:03;;;;;;;15.13;4.00;;;9.60;99.90;;;;;;20631574;28;20034;-39
2024/02/04 04:18:04;;;;;;;12.38;3.53;;;9.80;99.90;;;;;;20631468;28;20105;-39
2024/02/04 04:28:05;;;;;;;13.98;3.08;;;9.60;99.90;;;;;;20629855;28;20046;-39
2024/02/04 04:38:05;;;;;;;8.68;3.65;;;9.60;99.90;;;;;;20632560;28;20085;-40
2024/02/04 04:48:07;;;;;;;15.70;5.50;;;9.40;99.90;;;;;;20640905;28;20054;-40
2024/02/04 04:58:08;;;;;;;18.95;7.32;;;9.50;99.90;;;;;;20644954;28;20469;-39
2024/02/04 05:08:11;;;;;;;17.80;7.13;;;9.60;99.90;;;;;;20647877;28;20041;-40
2024/02/04 05:18:12;;;;;;;15.23;6.38;;;9.70;99.90;;;;;;20640454;28;20037;-39
2024/02/04 05:28:12;;;;;;;17.90;5.65;;;9.70;99.90;;;;;;20641871;28;20046;-40
2024/02/04 05:38:13;;;;;;;12.05;5.93;;;9.70;99.90;;;;;;20655584;28;20065;-39
2024/02/04 05:48:14;;;;;;;14.02;6.50;;;9.80;99.90;;;;;;20650165;28;20590;-40
2024/02/04 05:58:15;;;;;;;19.83;8.63;;;9.80;99.90;;;;;;20653004;28;20049;-40
2024/02/04 06:08:15;;;;;;;23.27;11.60;;;9.80;99.90;;;;;;20655512;28;20038;-39
2024/02/04 06:18:16;;;;;;;26.35;13.77;;;9.90;99.90;;;;;;20656029;28;20406;-40
2024/02/04 06:28:16;;;;;;;29.48;13.65;;;9.90;99.90;;;;;;20659623;28;20066;-39
2024/02/04 06:38:17;;;;;;;28.27;11.82;;;10.00;99.90;;;;;;20656268;28;20499;-40
2024/02/04 06:48:20;;;;;;;21.03;10.83;;;10.00;99.90;;;;;;20658558;28;20046;-39
2024/02/04 06:58:21;;;;;;;20.83;9.70;;;10.20;99.90;;;;;;20657441;28;21023;-40
2024/02/04 07:08:22;;;;;;;22.67;8.95;;;10.20;99.90;;;;;;20658496;28;21401;-40
2024/02/04 07:18:22;;;;;;;19.90;8.52;;;10.20;99.90;;;;;;20650991;28;20567;-40
2024/02/04 07:28:23;;;;;;;16.63;8.10;;;10.30;99.90;;;;;;20657609;28;20044;-39
2024/02/04 07:38:23;;;;;;;13.25;7.05;;;10.40;99.90;;;;;;20652877;28;20458;-40
2024/02/04 07:48:24;;;;;;;13.85;5.45;;;10.40;99.90;;;;;;20642439;28;20057;-39
2024/02/04 07:58:26;;;;;;;8.13;4.20;;;10.40;99.90;;;;;;20652429;28;20481;-39
2024/02/04 08:08:26;;;;;;;10.13;4.10;;;10.40;99.90;;;;;;20653333;28;20374;-40
2024/02/04 08:18:27;;;;;;;7.78;3.20;;;10.40;99.90;;;;;;20656645;28;20217;-40
2024/02/04 08:28:28;;;;;;;10.80;5.78;;;10.30;99.90;;;;;;20658542;28;21452;-40
2024/02/04 08:38:28;;;;;;;13.18;6.60;;;10.40;99.90;;;;;;20651509;28;20371;-39
2024/02/04 08:48:29;;;;;;;11.25;5.63;;;10.50;99.90;;;;;;20617651;28;20049;-40
2024/02/04 08:58:29;;;;;;;11.18;3.35;;;10.60;99.90;;;;;;20654379;28;20144;-40
2024/02/04 09:08:30;;;;;;;9.30;2.77;;;10.70;99.90;;;;;;20654444;28;20222;-40
2024/02/04 09:18:31;;;;;;;6.75;2.00;;;10.90;99.90;;;;;;20664607;28;20496;-40
2024/02/04 09:28:31;;;;;;;6.53;2.40;;;11.00;99.90;;;;;;20665843;28;20037;-40
2024/02/04 09:38:32;;;;;;;4.05;1.75;;;11.00;99.90;;;;;;20662207;28;20624;-40
2024/02/04 09:48:33;;;;;;;4.40;1.50;;;11.10;99.90;;;;;;20669662;28;20494;-40
2024/02/04 09:58:34;;;;;;;6.15;1.50;;;11.20;99.90;;;;;;20662257;28;20100;-40
2024/02/04 10:08:37;;;;;;;6.72;1.30;;;11.30;98.00;;;;;;20657783;28;20048;-39
2024/02/04 10:18:41;;;;;;;3.97;1.00;;;11.30;91.50;;;;;;20655883;28;20052;-40
2024/02/04 10:28:42;;;;;;;3.38;1.05;;;11.20;88.20;;;;;;20655537;28;20054;-40
2024/02/04 10:38:42;;;;;;;6.57;1.20;;;11.30;75.60;;;;;;20662215;28;20076;-40
2024/02/04 10:48:45;;;;;;;4.38;1.25;;;11.40;83.20;;;;;;20658778;28;20934;-40
2024/02/04 10:58:47;;;;;;;5.50;1.67;;;11.30;97.80;;;;;;20649598;28;20038;-40
2024/02/04 11:08:48;;;;;;;5.25;1.90;;;11.30;99.90;;;;;;20652285;28;20046;-40
2024/02/04 11:19:11;;;;;;;7.93;2.20;;;11.10;99.90;;;;;;20645194;28;20041;-40
2024/02/04 11:29:12;;;;;;;6.70;2.05;;;11.00;99.90;;;;;;20647594;28;20050;-40
2024/02/04 11:39:14;;;;;;;7.20;1.90;;;11.00;99.90;;;;;;20658426;28;20037;-40
2024/02/04 11:49:19;;;;;;;8.48;1.65;;;11.20;99.90;;;;;;20657016;28;20057;-40
2024/02/04 11:59:21;;;;;;;10.18;2.83;;;11.30;99.90;;;;;;20655359;28;20158;-40
2024/02/04 12:09:22;;;;;;;9.52;2.78;;;11.40;99.90;;;;;;20659034;28;20505;-40
2024/02/04 12:19:26;;;;;;;8.65;3.80;;;11.50;99.90;;;;;;20659446;28;20050;-40
2024/02/04 12:29:27;;;;;;;9.88;3.45;;;11.50;99.90;;;;;;20656988;28;20066;-40
2024/02/04 12:39:29;;;;;;;9.43;2.90;;;11.50;99.90;;;;;;20645349;28;20038;-40
2024/02/04 12:49:30;;;;;;;24.00;6.03;;;11.60;99.90;;;;;;20640613;28;20102;-40
2024/02/04 12:59:36;;;;;;;18.40;7.32;;;11.70;98.30;;;;;;20658871;28;20425;-41
2024/02/04 13:09:37;;;;;;;7.70;2.40;;;11.70;96.70;;;;;;20652038;28;20548;-40
2024/02/04 13:19:38;;;;;;;10.30;4.07;;;11.60;98.40;;;;;;20649715;28;20526;-40
2024/02/04 13:29:39;;;;;;;17.52;7.63;;;11.70;91.30;;;;;;20653745;28;20035;-40
2024/02/04 13:39:39;;;;;;;8.88;2.92;;;11.80;85.40;;;;;;20652235;28;20077;-40
2024/02/04 13:49:40;;;;;;;7.65;2.90;;;11.80;79.00;;;;;;20652455;28;20053;-40
2024/02/04 13:59:41;;;;;;;9.68;2.63;;;11.80;73.00;;;;;;20650339;28;20052;-40
2024/02/04 14:09:41;;;;;;;19.00;8.13;;;11.80;71.60;;;;;;20655958;28;20072;-40
2024/02/04 14:19:45;;;;;;;16.55;6.82;;;11.80;68.00;;;;;;20654412;28;20048;-40
2024/02/04 14:29:45;;;;;;;13.27;3.67;;;11.80;61.40;;;;;;20650432;28;20045;-40
2024/02/04 14:39:46;;;;;;;11.80;3.03;;;11.80;59.30;;;;;;20650423;28;20050;-40
2024/02/04 14:49:46;;;;;;;12.85;3.00;;;11.80;47.90;;;;;;20651133;28;20378;-40
2024/02/04 14:59:47;;;;;;;11.93;3.08;;;11.80;51.20;;;;;;20650116;28;20045;-40
2024/02/04 15:09:50;;;;;;;13.90;2.80;;;11.70;49.20;;;;;;20648708;28;20454;-40
2024/02/04 15:19:51;;;;;;;13.88;4.50;;;11.70;48.70;;;;;;20646465;28;20380;-40
2024/02/04 15:29:52;;;;;;;12.65;3.92;;;11.70;49.40;;;;;;20636438;28;20034;-40
2024/02/04 15:39:54;;;;;;;12.82;3.53;;;11.70;48.30;;;;;;20631737;28;20051;-40
2024/02/04 15:49:56;;;;;;;16.33;4.20;;;11.80;49.50;;;;;;20641587;28;20063;-40
2024/02/04 16:00:10;;;;;;;15.52;3.72;;;11.80;44.60;;;;;;20631103;28;20446;-40
2024/02/04 16:10:14;;;;;;;12.57;3.05;;;11.70;44.20;;;;;;20624813;28;20058;-40
2024/02/04 16:20:16;;;;;;;23.42;6.63;;;11.70;41.00;;;;;;20626629;28;20130;-40
2024/02/04 16:30:18;;;;;;;21.73;5.88;;;11.70;44.20;;;;;;20641007;28;20070;-40
2024/02/04 16:40:20;;;;;;;30.05;9.35;;;11.70;43.00;;;;;;20647669;28;20046;-39
2024/02/04 16:50:21;;;;;;;20.25;6.32;;;11.70;45.50;;;;;;20648835;28;20362;-40
2024/02/04 17:00:22;;;;;;;23.85;7.43;;;11.60;45.40;;;;;;20641848;28;20061;-39
2024/02/04 17:10:23;;;;;;;18.70;4.50;;;11.60;47.70;;;;;;20654295;28;20045;-40
2024/02/04 17:20:30;;;;;;;21.92;4.93;;;11.60;50.90;;;;;;20673236;28;20514;-39
2024/02/04 17:30:34;;;;;;;19.23;4.30;;;11.50;51.80;;;;;;20662876;28;20044;-39
2024/02/04 17:40:35;;;;;;;20.33;4.47;;;11.50;54.00;;;;;;20636703;28;20592;-39
2024/02/04 17:50:35;;;;;;;22.50;4.97;;;11.60;52.30;;;;;;20627387;28;20448;-39
2024/02/04 18:00:37;;;;;;;22.05;5.35;;;11.60;53.10;;;;;;20610597;28;20458;-40
2024/02/04 18:10:39;;;;;;;15.75;3.47;;;11.60;51.40;;;;;;20598744;28;20129;-40
2024/02/04 18:20:40;;;;;;;29.63;6.57;;;11.60;50.40;;;;;;20638176;28;20566;-39
2024/02/04 18:30:40;;;;;;;14.45;4.20;;;11.60;48.60;;;;;;20604420;28;20054;-40
2024/02/04 18:40:41;;;;;;;16.92;3.47;;;11.60;48.90;;;;;;20636754;28;20038;-40
2024/02/04 18:50:41;;;;;;;21.80;3.17;;;11.60;48.30;;;;;;20598172;28;20046;-40
2024/02/04 19:00:43;;;;;;;21.85;4.22;;;11.60;53.00;;;;;;20644401;28;20027;-39
2024/02/04 19:10:44;;;;;;;14.05;2.97;;;11.70;47.70;;;;;;20639308;28;20045;-40
2024/02/04 19:20:45;;;;;;;18.37;3.50;;;11.70;41.80;;;;;;20639731;28;20091;-40
2024/02/04 19:30:46;;;;;;;14.60;2.78;;;11.80;37.30;;;;;;20635990;28;20046;-40
2024/02/04 19:40:46;;;;;;;18.13;3.20;;;11.80;34.20;;;;;;20635050;28;20156;-40
2024/02/04 19:50:47;;;;;;;17.98;4.22;;;11.80;32.90;;;;;;20637781;28;20042;-40
2024/02/04 20:00:49;;;;;;;20.15;3.55;;;11.60;33.90;;;;;;20639566;28;20053;-40
2024/02/04 20:10:49;;;;;;;23.10;4.05;;;11.60;35.30;;;;;;20630131;28;20133;-39
2024/02/04 20:20:51;;;;;;;21.50;3.90;;;11.60;37.00;;;;;;20640564;28;20041;-39
2024/02/04 20:30:52;;;;;;;20.90;3.65;;;11.50;38.80;;;;;;20643743;28;20099;-39
2024/02/04 20:40:54;;;;;;;15.55;3.38;;;11.50;39.40;;;;;;20644097;28;21051;-40
2024/02/04 20:50:54;;;;;;;16.63;3.38;;;11.60;40.20;;;;;;20646165;28;20047;-40
2024/02/04 21:00:55;;;;;;;21.20;3.60;;;11.60;37.90;;;;;;20645892;28;20599;-40
2024/02/04 21:10:55;;;;;;;14.90;3.08;;;11.60;33.70;;;;;;20645284;28;20471;-40
2024/02/04 21:20:56;;;;;;;23.42;4.85;;;11.60;33.00;;;;;;20658635;28;20034;-40
2024/02/04 21:30:57;;;;;;;23.15;3.83;;;11.60;31.00;;;;;;20669374;28;20108;-40
2024/02/04 21:40:57;;;;;;;20.38;4.10;;;11.60;29.10;;;;;;20661645;28;20070;-40
2024/02/04 21:50:58;;;;;;;18.05;3.67;;;11.60;25.80;;;;;;20667324;28;20373;-40
2024/02/04 22:00:58;;;;;;;12.32;4.85;;;11.50;24.40;;;;;;20672751;28;20107;-39
2024/02/04 22:10:59;;;;;;;15.10;4.45;;;11.60;22.90;;;;;;20666944;28;20042;-40
2024/02/04 22:21:00;;;;;;;19.17;4.00;;;11.50;22.40;;;;;;20658569;28;20050;-40
2024/02/04 22:31:00;;;;;;;26.58;5.63;;;11.50;19.80;;;;;;20658946;28;20331;-40
2024/02/04 22:41:01;;;;;;;20.48;4.32;;;11.50;20.10;;;;;;20650099;28;20490;-40
2024/02/04 22:51:02;;;;;;;21.03;5.23;;;11.50;18.20;;;;;;20649662;28;20052;-40
2024/02/04 23:01:04;;;;;;;26.53;5.83;;;11.50;16.30;;;;;;20644380;28;20029;-40
2024/02/04 23:11:06;;;;;;;19.73;5.35;;;11.50;16.00;;;;;;20642883;28;20057;-40
2024/02/04 23:21:07;;;;;;;21.15;5.15;;;11.60;14.90;;;;;;20649855;28;20121;-40
2024/02/04 23:31:07;;;;;;;17.67;4.27;;;11.50;14.00;;;;;;20645930;28;20053;-40
2024/02/04 23:41:08;;;;;;;26.03;4.73;;;11.50;13.60;;;;;;20646391;28;20500;-40
2024/02/04 23:51:08;;;;;;;24.17;4.97;;;11.50;13.10;;;;;;20641689;28;21027;-40
